sensor_id;sensor_type;location;lat;lon;timestamp;pressure;altitude;pressure_sealevel;temperature;humidity
21395;BME280;10858;42.714;23.180;2023-03-07T00:00:43;93629.69;;;8.85;60.66
21395;BME280;10858;42.714;23.180;2023-03-07T00:03:14;93630.41;;;9.14;60.30
21395;BME280;10858;42.714;23.180;2023-03-07T00:05:40;93618.78;;;9.34;59.27
21395;BME280;10858;42.714;23.180;2023-03-07T00:08:07;93606.63;;;9.41;58.96
21395;BME280;10858;42.714;23.180;2023-03-07T00:10:33;93609.91;;;9.53;58.63
21395;BME280;10858;42.714;23.180;2023-03-07T00:12:59;93605.66;;;9.69;58.11
21395;BME280;10858;42.714;23.180;2023-03-07T00:15:26;93616.06;;;9.53;58.69
21395;BME280;10858;42.714;23.180;2023-03-07T00:17:52;93599.56;;;9.59;58.75
21395;BME280;10858;42.714;23.180;2023-03-07T00:20:18;93604.28;;;9.65;58.82
21395;BME280;10858;42.714;23.180;2023-03-07T00:22:44;93590.75;;;9.41;59.10
21395;BME280;10858;42.714;23.180;2023-03-07T00:25:14;93587.59;;;9.55;59.16
21395;BME280;10858;42.714;23.180;2023-03-07T00:27:41;93596.41;;;9.73;58.49
21395;BME280;10858;42.714;23.180;2023-03-07T00:30:08;93592.75;;;9.57;59.25
21395;BME280;10858;42.714;23.180;2023-03-07T00:32:37;93595.53;;;9.37;60.02
21395;BME280;10858;42.714;23.180;2023-03-07T00:35:03;93590.78;;;9.59;59.21
21395;BME280;10858;42.714;23.180;2023-03-07T00:37:29;93587.69;;;9.36;59.88
21395;BME280;10858;42.714;23.180;2023-03-07T00:39:56;93591.81;;;9.48;59.63
21395;BME280;10858;42.714;23.180;2023-03-07T00:42:22;93591.31;;;9.62;59.18
21395;BME280;10858;42.714;23.180;2023-03-07T00:44:48;93582.25;;;9.65;59.24
21395;BME280;10858;42.714;23.180;2023-03-07T00:47:14;93589.56;;;9.53;59.51
21395;BME280;10858;42.714;23.180;2023-03-07T00:49:41;93578.38;;;9.59;59.50
21395;BME280;10858;42.714;23.180;2023-03-07T00:52:07;93580.25;;;9.49;59.86
21395;BME280;10858;42.714;23.180;2023-03-07T00:54:33;93569.69;;;9.67;59.92
21395;BME280;10858;42.714;23.180;2023-03-07T00:56:59;93565.16;;;9.59;60.03
21395;BME280;10858;42.714;23.180;2023-03-07T00:59:25;93557.50;;;9.56;60.42
21395;BME280;10858;42.714;23.180;2023-03-07T01:01:52;93555.84;;;9.55;60.38
21395;BME280;10858;42.714;23.180;2023-03-07T01:04:18;93549.09;;;9.61;60.19
21395;BME280;10858;42.714;23.180;2023-03-07T01:06:44;93543.16;;;9.94;59.27
21395;BME280;10858;42.714;23.180;2023-03-07T01:09:10;93552.22;;;9.91;59.24
21395;BME280;10858;42.714;23.180;2023-03-07T01:11:37;93538.59;;;9.86;59.09
21395;BME280;10858;42.714;23.180;2023-03-07T01:14:04;93545.25;;;9.90;58.98
21395;BME280;10858;42.714;23.180;2023-03-07T01:16:33;93541.81;;;9.90;59.29
21395;BME280;10858;42.714;23.180;2023-03-07T01:19:03;93544.53;;;9.98;58.99
21395;BME280;10858;42.714;23.180;2023-03-07T01:21:32;93536.72;;;9.79;59.09
21395;BME280;10858;42.714;23.180;2023-03-07T01:23:58;93535.25;;;9.84;59.45
21395;BME280;10858;42.714;23.180;2023-03-07T01:26:27;93537.78;;;9.86;59.35
21395;BME280;10858;42.714;23.180;2023-03-07T01:28:56;93538.84;;;9.75;59.37
21395;BME280;10858;42.714;23.180;2023-03-07T01:31:23;93535.59;;;9.81;59.42
21395;BME280;10858;42.714;23.180;2023-03-07T01:33:51;93526.44;;;9.76;59.69
21395;BME280;10858;42.714;23.180;2023-03-07T01:36:20;93520.97;;;9.77;59.93
21395;BME280;10858;42.714;23.180;2023-03-07T01:38:48;93518.09;;;9.71;59.97
21395;BME280;10858;42.714;23.180;2023-03-07T01:41:14;93515.59;;;9.87;59.64
21395;BME280;10858;42.714;23.180;2023-03-07T01:43:41;93521.28;;;9.74;59.84
21395;BME280;10858;42.714;23.180;2023-03-07T01:48:55;93512.66;;;9.90;59.26
21395;BME280;10858;42.714;23.180;2023-03-07T01:51:23;93513.56;;;9.81;59.44
21395;BME280;10858;42.714;23.180;2023-03-07T01:53:51;93522.88;;;9.85;59.19
21395;BME280;10858;42.714;23.180;2023-03-07T01:56:19;93514.41;;;9.81;58.92
21395;BME280;10858;42.714;23.180;2023-03-07T01:58:46;93527.09;;;9.95;58.57
21395;BME280;10858;42.714;23.180;2023-03-07T02:01:13;93518.16;;;9.96;58.40
21395;BME280;10858;42.714;23.180;2023-03-07T02:03:51;93520.53;;;9.99;58.75
21395;BME280;10858;42.714;23.180;2023-03-07T02:06:18;93523.84;;;10.01;57.92
21395;BME280;10858;42.714;23.180;2023-03-07T02:08:47;93522.84;;;10.02;58.44
21395;BME280;10858;42.714;23.180;2023-03-07T02:11:14;93519.44;;;10.27;57.43
21395;BME280;10858;42.714;23.180;2023-03-07T02:13:40;93526.94;;;10.14;57.72
21395;BME280;10858;42.714;23.180;2023-03-07T02:16:07;93519.84;;;10.15;57.85
21395;BME280;10858;42.714;23.180;2023-03-07T02:18:37;93524.28;;;9.97;58.11
21395;BME280;10858;42.714;23.180;2023-03-07T02:28:54;93524.47;;;10.13;57.83
21395;BME280;10858;42.714;23.180;2023-03-07T02:31:20;93531.72;;;9.93;58.46
21395;BME280;10858;42.714;23.180;2023-03-07T02:33:46;93527.81;;;9.80;58.63
21395;BME280;10858;42.714;23.180;2023-03-07T02:36:16;93533.53;;;9.93;58.16
21395;BME280;10858;42.714;23.180;2023-03-07T02:38:44;93531.28;;;10.15;57.80
21395;BME280;10858;42.714;23.180;2023-03-07T02:41:15;93533.53;;;10.10;58.00
21395;BME280;10858;42.714;23.180;2023-03-07T02:43:44;93530.19;;;10.08;57.80
21395;BME280;10858;42.714;23.180;2023-03-07T02:46:10;93532.84;;;10.08;57.95
21395;BME280;10858;42.714;23.180;2023-03-07T02:48:36;93530.19;;;10.08;57.76
21395;BME280;10858;42.714;23.180;2023-03-07T02:51:02;93526.94;;;10.14;57.52
21395;BME280;10858;42.714;23.180;2023-03-07T02:53:29;93536.59;;;10.15;57.43
21395;BME280;10858;42.714;23.180;2023-03-07T02:55:55;93531.47;;;10.04;57.45
21395;BME280;10858;42.714;23.180;2023-03-07T02:58:21;93535.47;;;10.08;57.74
21395;BME280;10858;42.714;23.180;2023-03-07T03:00:47;93533.41;;;10.12;57.38
21395;BME280;10858;42.714;23.180;2023-03-07T03:03:13;93542.56;;;10.17;57.38
21395;BME280;10858;42.714;23.180;2023-03-07T03:05:39;93536.88;;;10.12;57.71
21395;BME280;10858;42.714;23.180;2023-03-07T03:08:06;93548.72;;;10.08;57.35
21395;BME280;10858;42.714;23.180;2023-03-07T03:10:32;93532.56;;;10.11;57.40
21395;BME280;10858;42.714;23.180;2023-03-07T03:12:58;93532.47;;;10.03;57.60
21395;BME280;10858;42.714;23.180;2023-03-07T03:15:24;93525.13;;;9.97;57.63
21395;BME280;10858;42.714;23.180;2023-03-07T03:17:53;93532.47;;;10.03;57.72
21395;BME280;10858;42.714;23.180;2023-03-07T03:20:19;93521.50;;;9.98;57.70
21395;BME280;10858;42.714;23.180;2023-03-07T03:22:45;93525.28;;;9.78;58.20
21395;BME280;10858;42.714;23.180;2023-03-07T03:25:13;93531.94;;;9.82;58.55
21395;BME280;10858;42.714;23.180;2023-03-07T03:27:39;93543.06;;;10.03;57.95
21395;BME280;10858;42.714;23.180;2023-03-07T03:30:08;93541.19;;;10.13;57.41
21395;BME280;10858;42.714;23.180;2023-03-07T03:32:39;93543.59;;;9.89;58.23
21395;BME280;10858;42.714;23.180;2023-03-07T03:35:05;93542.63;;;10.08;57.73
21395;BME280;10858;42.714;23.180;2023-03-07T03:37:32;93543.53;;;10.16;57.61
21395;BME280;10858;42.714;23.180;2023-03-07T03:39:59;93538.84;;;10.10;57.78
21395;BME280;10858;42.714;23.180;2023-03-07T03:42:26;93539.53;;;10.30;57.22
21395;BME280;10858;42.714;23.180;2023-03-07T03:44:52;93549.50;;;10.18;57.39
21395;BME280;10858;42.714;23.180;2023-03-07T03:47:18;93543.84;;;10.13;57.70
21395;BME280;10858;42.714;23.180;2023-03-07T03:49:44;93539.81;;;10.09;58.07
21395;BME280;10858;42.714;23.180;2023-03-07T03:52:11;93550.81;;;10.14;57.68
21395;BME280;10858;42.714;23.180;2023-03-07T03:54:37;93549.31;;;10.12;57.71
21395;BME280;10858;42.714;23.180;2023-03-07T03:57:03;93550.97;;;10.13;57.63
21395;BME280;10858;42.714;23.180;2023-03-07T03:59:29;93549.13;;;10.31;57.26
21395;BME280;10858;42.714;23.180;2023-03-07T04:01:56;93550.13;;;10.12;57.87
21395;BME280;10858;42.714;23.180;2023-03-07T04:04:22;93551.88;;;10.21;57.44
21395;BME280;10858;42.714;23.180;2023-03-07T04:06:49;93549.50;;;10.01;58.10
21395;BME280;10858;42.714;23.180;2023-03-07T04:09:15;93547.69;;;10.19;57.75
21395;BME280;10858;42.714;23.180;2023-03-07T04:11:42;93556.59;;;10.10;57.88
21395;BME280;10858;42.714;23.180;2023-03-07T04:14:08;93552.09;;;10.10;57.79
21395;BME280;10858;42.714;23.180;2023-03-07T04:16:34;93548.22;;;10.22;57.55
21395;BME280;10858;42.714;23.180;2023-03-07T04:19:00;93561.41;;;10.14;57.42
21395;BME280;10858;42.714;23.180;2023-03-07T04:21:27;93554.75;;;10.10;57.72
21395;BME280;10858;42.714;23.180;2023-03-07T04:23:53;93553.50;;;10.05;58.27
21395;BME280;10858;42.714;23.180;2023-03-07T04:26:22;93548.31;;;9.95;58.32
21395;BME280;10858;42.714;23.180;2023-03-07T04:28:49;93558.06;;;9.77;59.08
21395;BME280;10858;42.714;23.180;2023-03-07T04:31:18;93547.53;;;9.85;58.98
21395;BME280;10858;42.714;23.180;2023-03-07T04:33:45;93555.47;;;10.03;58.83
21395;BME280;10858;42.714;23.180;2023-03-07T04:36:12;93563.19;;;9.96;58.62
21395;BME280;10858;42.714;23.180;2023-03-07T04:38:41;93562.50;;;9.77;59.14
21395;BME280;10858;42.714;23.180;2023-03-07T04:41:10;93561.59;;;9.68;59.25
21395;BME280;10858;42.714;23.180;2023-03-07T04:43:37;93560.25;;;9.82;59.50
21395;BME280;10858;42.714;23.180;2023-03-07T04:46:04;93562.31;;;9.88;59.04
21395;BME280;10858;42.714;23.180;2023-03-07T04:48:30;93559.88;;;9.77;59.22
21395;BME280;10858;42.714;23.180;2023-03-07T04:50:56;93566.84;;;9.78;59.02
21395;BME280;10858;42.714;23.180;2023-03-07T04:53:23;93567.22;;;9.83;58.59
21395;BME280;10858;42.714;23.180;2023-03-07T04:55:49;93561.84;;;9.75;59.15
21395;BME280;10858;42.714;23.180;2023-03-07T04:58:15;93564.19;;;9.78;58.80
21395;BME280;10858;42.714;23.180;2023-03-07T05:00:42;93566.31;;;9.92;58.44
21395;BME280;10858;42.714;23.180;2023-03-07T05:03:10;93562.50;;;9.94;58.48
21395;BME280;10858;42.714;23.180;2023-03-07T05:05:37;93575.69;;;9.86;58.55
21395;BME280;10858;42.714;23.180;2023-03-07T05:08:04;93571.22;;;9.69;58.80
21395;BME280;10858;42.714;23.180;2023-03-07T05:10:31;93569.09;;;9.73;58.93
21395;BME280;10858;42.714;23.180;2023-03-07T05:12:58;93568.84;;;9.66;59.22
21395;BME280;10858;42.714;23.180;2023-03-07T05:15:25;93566.69;;;9.79;59.12
21395;BME280;10858;42.714;23.180;2023-03-07T05:17:51;93562.84;;;9.91;58.63
21395;BME280;10858;42.714;23.180;2023-03-07T05:20:18;93555.63;;;10.01;57.95
21395;BME280;10858;42.714;23.180;2023-03-07T05:22:44;93558.19;;;9.58;59.17
21395;BME280;10858;42.714;23.180;2023-03-07T05:25:11;93567.06;;;9.84;59.07
21395;BME280;10858;42.714;23.180;2023-03-07T05:27:38;93562.47;;;10.04;58.71
21395;BME280;10858;42.714;23.180;2023-03-07T05:30:04;93563.53;;;10.11;58.70
21395;BME280;10858;42.714;23.180;2023-03-07T05:32:31;93561.00;;;10.09;58.59
21395;BME280;10858;42.714;23.180;2023-03-07T05:34:57;93565.41;;;10.01;58.63
21395;BME280;10858;42.714;23.180;2023-03-07T05:37:24;93565.34;;;10.10;58.53
21395;BME280;10858;42.714;23.180;2023-03-07T05:39:50;93569.41;;;10.05;58.79
21395;BME280;10858;42.714;23.180;2023-03-07T05:42:16;93571.94;;;10.24;58.33
21395;BME280;10858;42.714;23.180;2023-03-07T05:44:42;93571.84;;;10.34;58.09
21395;BME280;10858;42.714;23.180;2023-03-07T05:47:09;93580.78;;;10.33;57.82
21395;BME280;10858;42.714;23.180;2023-03-07T05:49:35;93581.25;;;10.28;58.34
21395;BME280;10858;42.714;23.180;2023-03-07T05:52:01;93581.22;;;10.46;58.29
21395;BME280;10858;42.714;23.180;2023-03-07T05:54:27;93579.19;;;10.40;57.93
21395;BME280;10858;42.714;23.180;2023-03-07T05:56:54;93575.66;;;10.13;58.94
21395;BME280;10858;42.714;23.180;2023-03-07T05:59:20;93574.19;;;10.37;58.67
21395;BME280;10858;42.714;23.180;2023-03-07T06:01:46;93582.69;;;10.22;58.23
21395;BME280;10858;42.714;23.180;2023-03-07T06:04:12;93577.91;;;10.44;57.58
21395;BME280;10858;42.714;23.180;2023-03-07T06:06:38;93579.31;;;10.56;57.10
21395;BME280;10858;42.714;23.180;2023-03-07T06:09:04;93583.16;;;10.61;56.87
21395;BME280;10858;42.714;23.180;2023-03-07T06:11:31;93575.47;;;10.76;56.65
21395;BME280;10858;42.714;23.180;2023-03-07T06:13:58;93586.91;;;11.02;55.99
21395;BME280;10858;42.714;23.180;2023-03-07T06:16:24;93585.66;;;11.14;55.17
21395;BME280;10858;42.714;23.180;2023-03-07T06:18:50;93579.75;;;11.28;54.29
21395;BME280;10858;42.714;23.180;2023-03-07T06:21:17;93581.13;;;11.40;53.91
21395;BME280;10858;42.714;23.180;2023-03-07T06:23:44;93590.47;;;11.52;54.03
21395;BME280;10858;42.714;23.180;2023-03-07T06:26:10;93596.56;;;11.45;54.24
21395;BME280;10858;42.714;23.180;2023-03-07T06:28:38;93596.91;;;11.08;54.82
21395;BME280;10858;42.714;23.180;2023-03-07T06:31:15;93604.56;;;11.19;54.81
21395;BME280;10858;42.714;23.180;2023-03-07T06:33:42;93601.91;;;10.85;55.47
21395;BME280;10858;42.714;23.180;2023-03-07T06:36:11;93611.66;;;10.85;55.85
21395;BME280;10858;42.714;23.180;2023-03-07T06:38:38;93604.91;;;11.16;55.02
21395;BME280;10858;42.714;23.180;2023-03-07T06:41:04;93618.88;;;11.60;54.09
21395;BME280;10858;42.714;23.180;2023-03-07T06:43:31;93621.63;;;11.42;54.13
21395;BME280;10858;42.714;23.180;2023-03-07T06:45:58;93611.19;;;11.90;53.17
21395;BME280;10858;42.714;23.180;2023-03-07T06:48:24;93610.03;;;11.85;53.61
21395;BME280;10858;42.714;23.180;2023-03-07T06:50:50;93621.41;;;12.19;51.22
21395;BME280;10858;42.714;23.180;2023-03-07T06:53:17;93618.47;;;12.62;51.83
21395;BME280;10858;42.714;23.180;2023-03-07T06:55:46;93620.63;;;12.83;49.27
21395;BME280;10858;42.714;23.180;2023-03-07T06:58:13;93622.78;;;12.71;50.36
21395;BME280;10858;42.714;23.180;2023-03-07T07:00:39;93614.13;;;12.53;50.73
21395;BME280;10858;42.714;23.180;2023-03-07T07:03:05;93616.13;;;12.67;49.64
21395;BME280;10858;42.714;23.180;2023-03-07T07:05:31;93611.66;;;12.52;49.59
21395;BME280;10858;42.714;23.180;2023-03-07T07:07:57;93611.09;;;12.00;51.91
21395;BME280;10858;42.714;23.180;2023-03-07T07:10:23;93613.81;;;12.48;51.51
21395;BME280;10858;42.714;23.180;2023-03-07T07:12:50;93611.00;;;12.50;51.31
21395;BME280;10858;42.714;23.180;2023-03-07T07:15:22;93610.81;;;12.35;51.74
21395;BME280;10858;42.714;23.180;2023-03-07T07:17:49;93619.28;;;12.55;50.60
21395;BME280;10858;42.714;23.180;2023-03-07T07:20:16;93622.44;;;13.15;49.59
21395;BME280;10858;42.714;23.180;2023-03-07T07:22:43;93622.97;;;13.18;48.99
21395;BME280;10858;42.714;23.180;2023-03-07T07:25:09;93625.59;;;13.34;49.02
21395;BME280;10858;42.714;23.180;2023-03-07T07:27:36;93627.56;;;13.48;48.01
21395;BME280;10858;42.714;23.180;2023-03-07T07:30:03;93628.00;;;13.60;47.98
21395;BME280;10858;42.714;23.180;2023-03-07T07:32:30;93621.66;;;14.00;46.92
21395;BME280;10858;42.714;23.180;2023-03-07T07:34:56;93625.19;;;13.53;48.20
21395;BME280;10858;42.714;23.180;2023-03-07T07:37:23;93622.50;;;13.61;47.59
21395;BME280;10858;42.714;23.180;2023-03-07T07:39:50;93617.88;;;13.47;47.65
21395;BME280;10858;42.714;23.180;2023-03-07T07:42:16;93627.94;;;12.65;48.04
21395;BME280;10858;42.714;23.180;2023-03-07T07:44:42;93631.88;;;13.41;47.72
21395;BME280;10858;42.714;23.180;2023-03-07T07:47:11;93626.53;;;13.49;47.41
21395;BME280;10858;42.714;23.180;2023-03-07T07:49:37;93629.06;;;13.27;47.73
21395;BME280;10858;42.714;23.180;2023-03-07T07:52:04;93617.84;;;13.55;46.58
21395;BME280;10858;42.714;23.180;2023-03-07T07:54:30;93629.94;;;13.11;48.63
21395;BME280;10858;42.714;23.180;2023-03-07T07:56:57;93620.38;;;13.49;47.90
21395;BME280;10858;42.714;23.180;2023-03-07T07:59:23;93624.88;;;14.26;44.96
21395;BME280;10858;42.714;23.180;2023-03-07T08:01:49;93638.16;;;13.64;45.73
21395;BME280;10858;42.714;23.180;2023-03-07T08:04:15;93633.84;;;13.55;45.84
21395;BME280;10858;42.714;23.180;2023-03-07T08:06:41;93630.81;;;13.67;46.26
21395;BME280;10858;42.714;23.180;2023-03-07T08:09:09;93634.22;;;13.44;45.88
21395;BME280;10858;42.714;23.180;2023-03-07T08:11:35;93629.44;;;13.79;46.11
21395;BME280;10858;42.714;23.180;2023-03-07T08:14:02;93640.78;;;13.81;45.03
21395;BME280;10858;42.714;23.180;2023-03-07T08:16:28;93630.09;;;14.11;44.88
21395;BME280;10858;42.714;23.180;2023-03-07T08:18:55;93630.81;;;13.67;45.02
21395;BME280;10858;42.714;23.180;2023-03-07T08:21:23;93632.00;;;14.03;44.22
21395;BME280;10858;42.714;23.180;2023-03-07T08:23:50;93628.56;;;14.17;44.72
21395;BME280;10858;42.714;23.180;2023-03-07T08:26:16;93631.72;;;14.28;44.13
21395;BME280;10858;42.714;23.180;2023-03-07T08:28:43;93642.06;;;14.23;44.30
21395;BME280;10858;42.714;23.180;2023-03-07T08:31:18;93637.72;;;14.98;42.11
21395;BME280;10858;42.714;23.180;2023-03-07T08:33:48;93625.94;;;14.70;42.96
21395;BME280;10858;42.714;23.180;2023-03-07T08:36:15;93638.91;;;14.96;43.33
21395;BME280;10858;42.714;23.180;2023-03-07T08:38:41;93641.47;;;14.89;41.71
21395;BME280;10858;42.714;23.180;2023-03-07T08:41:08;93633.75;;;14.49;41.96
21395;BME280;10858;42.714;23.180;2023-03-07T08:43:36;93637.63;;;14.08;42.46
21395;BME280;10858;42.714;23.180;2023-03-07T08:46:03;93641.47;;;14.44;43.56
21395;BME280;10858;42.714;23.180;2023-03-07T08:48:29;93633.91;;;14.17;43.85
21395;BME280;10858;42.714;23.180;2023-03-07T08:50:56;93635.66;;;14.40;42.94
21395;BME280;10858;42.714;23.180;2023-03-07T08:53:22;93631.22;;;15.01;42.66
21395;BME280;10858;42.714;23.180;2023-03-07T08:55:49;93628.28;;;14.65;42.75
21395;BME280;10858;42.714;23.180;2023-03-07T08:58:15;93626.06;;;13.93;44.01
21395;BME280;10858;42.714;23.180;2023-03-07T09:00:41;93630.84;;;13.58;44.35
21395;BME280;10858;42.714;23.180;2023-03-07T09:03:08;93616.88;;;15.16;43.55
21395;BME280;10858;42.714;23.180;2023-03-07T09:05:36;93628.91;;;16.08;39.58
21395;BME280;10858;42.714;23.180;2023-03-07T09:08:08;93626.97;;;16.67;38.96
21395;BME280;10858;42.714;23.180;2023-03-07T09:10:35;93623.53;;;16.37;39.17
21395;BME280;10858;42.714;23.180;2023-03-07T09:13:01;93630.03;;;15.55;40.12
21395;BME280;10858;42.714;23.180;2023-03-07T09:15:27;93626.88;;;15.37;40.75
21395;BME280;10858;42.714;23.180;2023-03-07T09:17:54;93610.63;;;16.26;40.32
21395;BME280;10858;42.714;23.180;2023-03-07T09:20:20;93610.03;;;17.85;37.44
21395;BME280;10858;42.714;23.180;2023-03-07T09:22:46;93610.75;;;17.45;37.46
21395;BME280;10858;42.714;23.180;2023-03-07T09:25:13;93618.06;;;17.51;37.28
21395;BME280;10858;42.714;23.180;2023-03-07T09:27:39;93611.78;;;16.38;38.37
21395;BME280;10858;42.714;23.180;2023-03-07T09:30:06;93617.47;;;16.14;39.12
21395;BME280;10858;42.714;23.180;2023-03-07T09:32:32;93610.47;;;15.98;39.64
21395;BME280;10858;42.714;23.180;2023-03-07T09:34:59;93608.88;;;16.18;40.29
21395;BME280;10858;42.714;23.180;2023-03-07T09:37:25;93598.28;;;17.31;38.43
21395;BME280;10858;42.714;23.180;2023-03-07T09:39:51;93602.28;;;17.69;36.31
21395;BME280;10858;42.714;23.180;2023-03-07T09:45:19;93583.56;;;18.77;36.36
21395;BME280;10858;42.714;23.180;2023-03-07T09:50:55;93590.44;;;18.38;34.69
21395;BME280;10858;42.714;23.180;2023-03-07T09:56:12;93575.38;;;19.43;32.49
21395;BME280;10858;42.714;23.180;2023-03-07T09:58:44;93571.81;;;19.04;33.68
21395;BME280;10858;42.714;23.180;2023-03-07T10:01:13;93573.28;;;19.26;32.48
21395;BME280;10858;42.714;23.180;2023-03-07T10:04:02;93552.66;;;18.33;33.79
21395;BME280;10858;42.714;23.180;2023-03-07T10:06:42;93558.13;;;19.64;32.25
21395;BME280;10858;42.714;23.180;2023-03-07T10:09:16;93561.88;;;19.50;31.12
21395;BME280;10858;42.714;23.180;2023-03-07T10:11:53;93552.75;;;19.84;30.65
21395;BME280;10858;42.714;23.180;2023-03-07T10:20:05;93542.38;;;19.87;30.72
21395;BME280;10858;42.714;23.180;2023-03-07T10:22:43;93546.56;;;19.64;30.97
21395;BME280;10858;42.714;23.180;2023-03-07T10:25:35;93537.97;;;20.06;29.55
21395;BME280;10858;42.714;23.180;2023-03-07T10:28:27;93529.63;;;19.04;31.55
21395;BME280;10858;42.714;23.180;2023-03-07T10:30:59;93532.81;;;17.80;33.24
21395;BME280;10858;42.714;23.180;2023-03-07T10:33:28;93533.16;;;18.92;32.04
21395;BME280;10858;42.714;23.180;2023-03-07T10:36:13;93517.84;;;20.08;29.58
21395;BME280;10858;42.714;23.180;2023-03-07T10:41:59;93504.00;;;19.98;30.10
21395;BME280;10858;42.714;23.180;2023-03-07T10:44:29;93508.06;;;20.27;30.95
21395;BME280;10858;42.714;23.180;2023-03-07T10:46:58;93492.88;;;19.88;29.17
21395;BME280;10858;42.714;23.180;2023-03-07T10:49:36;93497.31;;;20.20;29.41
21395;BME280;10858;42.714;23.180;2023-03-07T10:52:40;93493.78;;;21.20;30.05
21395;BME280;10858;42.714;23.180;2023-03-07T10:55:35;93486.03;;;20.99;28.62
21395;BME280;10858;42.714;23.180;2023-03-07T10:58:18;93481.00;;;21.09;28.73
21395;BME280;10858;42.714;23.180;2023-03-07T11:03:50;93470.66;;;20.75;29.05
21395;BME280;10858;42.714;23.180;2023-03-07T11:06:42;93471.72;;;19.28;30.72
21395;BME280;10858;42.714;23.180;2023-03-07T11:09:29;93472.78;;;18.88;31.81
21395;BME280;10858;42.714;23.180;2023-03-07T11:11:59;93467.53;;;18.27;31.70
21395;BME280;10858;42.714;23.180;2023-03-07T11:14:56;93457.38;;;17.22;34.31
21395;BME280;10858;42.714;23.180;2023-03-07T11:17:24;93458.09;;;17.02;35.69
21395;BME280;10858;42.714;23.180;2023-03-07T11:19:57;93457.19;;;17.23;34.83
21395;BME280;10858;42.714;23.180;2023-03-07T11:22:31;93455.91;;;18.01;33.54
21395;BME280;10858;42.714;23.180;2023-03-07T11:27:51;93453.28;;;18.40;32.45
21395;BME280;10858;42.714;23.180;2023-03-07T11:30:29;93447.91;;;18.40;32.21
21395;BME280;10858;42.714;23.180;2023-03-07T11:33:04;93449.38;;;18.42;32.91
21395;BME280;10858;42.714;23.180;2023-03-07T11:38:53;93425.28;;;20.03;30.68
21395;BME280;10858;42.714;23.180;2023-03-07T11:41:54;93447.44;;;18.10;32.52
21395;BME280;10858;42.714;23.180;2023-03-07T11:44:43;93436.19;;;18.60;31.97
21395;BME280;10858;42.714;23.180;2023-03-07T11:50:22;93424.06;;;19.48;31.19
21395;BME280;10858;42.714;23.180;2023-03-07T12:08:01;93404.09;;;18.98;30.94
21395;BME280;10858;42.714;23.180;2023-03-07T12:13:27;93396.50;;;18.62;30.92
21395;BME280;10858;42.714;23.180;2023-03-07T12:16:23;93401.59;;;17.86;31.31
21395;BME280;10858;42.714;23.180;2023-03-07T12:18:55;93401.63;;;19.10;31.24
21395;BME280;10858;42.714;23.180;2023-03-07T12:21:44;93398.50;;;20.52;27.77
21395;BME280;10858;42.714;23.180;2023-03-07T12:24:23;93388.84;;;20.00;28.63
21395;BME280;10858;42.714;23.180;2023-03-07T12:31:57;93388.13;;;20.98;25.92
21395;BME280;10858;42.714;23.180;2023-03-07T12:37:15;93384.78;;;22.12;26.05
21395;BME280;10858;42.714;23.180;2023-03-07T12:42:24;93375.53;;;21.53;26.73
21395;BME280;10858;42.714;23.180;2023-03-07T12:55:34;93366.09;;;21.44;25.81
21395;BME280;10858;42.714;23.180;2023-03-07T13:00:49;93364.66;;;20.81;26.67
21395;BME280;10858;42.714;23.180;2023-03-07T13:03:34;93373.34;;;21.62;25.08
21395;BME280;10858;42.714;23.180;2023-03-07T13:06:08;93364.31;;;21.20;25.65
21395;BME280;10858;42.714;23.180;2023-03-07T13:08:39;93370.81;;;19.70;27.83
21395;BME280;10858;42.714;23.180;2023-03-07T13:11:05;93363.66;;;18.21;29.71
21395;BME280;10858;42.714;23.180;2023-03-07T13:16:11;93372.34;;;18.76;30.37
21395;BME280;10858;42.714;23.180;2023-03-07T13:18:38;93356.25;;;19.39;29.14
21395;BME280;10858;42.714;23.180;2023-03-07T13:21:31;93358.63;;;20.36;27.56
21395;BME280;10858;42.714;23.180;2023-03-07T13:27:22;93362.69;;;20.14;27.70
21395;BME280;10858;42.714;23.180;2023-03-07T13:30:18;93370.44;;;20.35;27.88
21395;BME280;10858;42.714;23.180;2023-03-07T13:55:48;93372.88;;;16.51;35.00
21395;BME280;10858;42.714;23.180;2023-03-07T13:58:30;93373.09;;;16.07;34.99
21395;BME280;10858;42.714;23.180;2023-03-07T14:01:12;93372.66;;;16.52;34.73
21395;BME280;10858;42.714;23.180;2023-03-07T14:06:53;93363.69;;;17.00;33.52
21395;BME280;10858;42.714;23.180;2023-03-07T14:09:27;93369.72;;;16.75;32.31
21395;BME280;10858;42.714;23.180;2023-03-07T14:12:02;93373.28;;;16.54;32.76
21395;BME280;10858;42.714;23.180;2023-03-07T14:14:43;93382.22;;;16.40;33.57
21395;BME280;10858;42.714;23.180;2023-03-07T14:20:17;93364.81;;;16.23;32.66
21395;BME280;10858;42.714;23.180;2023-03-07T14:25:26;93376.47;;;15.94;33.95
21395;BME280;10858;42.714;23.180;2023-03-07T14:27:59;93385.81;;;16.26;33.75
21395;BME280;10858;42.714;23.180;2023-03-07T14:30:29;93376.72;;;16.21;33.11
21395;BME280;10858;42.714;23.180;2023-03-07T14:32:56;93374.56;;;16.58;32.49
21395;BME280;10858;42.714;23.180;2023-03-07T14:35:41;93378.31;;;16.15;33.86
21395;BME280;10858;42.714;23.180;2023-03-07T14:38:13;93376.66;;;16.14;34.09
21395;BME280;10858;42.714;23.180;2023-03-07T14:40:52;93377.19;;;15.82;34.29
21395;BME280;10858;42.714;23.180;2023-03-07T14:52:13;93378.50;;;15.50;34.79
21395;BME280;10858;42.714;23.180;2023-03-07T14:54:44;93369.28;;;15.95;33.86
21395;BME280;10858;42.714;23.180;2023-03-07T14:57:28;93371.47;;;15.85;33.89
21395;BME280;10858;42.714;23.180;2023-03-07T15:00:23;93376.03;;;15.91;33.54
21395;BME280;10858;42.714;23.180;2023-03-07T15:02:54;93368.13;;;16.04;33.75
21395;BME280;10858;42.714;23.180;2023-03-07T15:07:50;93374.63;;;15.38;34.40
21395;BME280;10858;42.714;23.180;2023-03-07T15:10:19;93372.06;;;15.30;34.47
21395;BME280;10858;42.714;23.180;2023-03-07T15:12:50;93376.22;;;15.32;34.53
21395;BME280;10858;42.714;23.180;2023-03-07T15:17:49;93373.03;;;15.08;35.80